sensor_id;sensor_type;location;lat;lon;timestamp;pressure;altitude;pressure_sealevel;temperature;humidity
50087;BME280;35967;50.718;7.050;2022-11-15T00:08:28;100196.59;;;11.51;90.79
50087;BME280;35967;50.718;7.050;2022-11-15T00:18:52;100196.09;;;11.91;92.34
50087;BME280;35967;50.718;7.050;2022-11-15T00:29:14;100199.00;;;11.81;91.59
50087;BME280;35967;50.718;7.050;2022-11-15T00:39:37;100190.84;;;11.68;91.43
50087;BME280;35967;50.718;7.050;2022-11-15T00:49:59;100189.09;;;11.94;92.81
50087;BME280;35967;50.718;7.050;2022-11-15T01:00:22;100182.78;;;12.03;91.91
50087;BME280;35967;50.718;7.050;2022-11-15T01:10:44;100179.25;;;11.80;91.88
50087;BME280;35967;50.718;7.050;2022-11-15T01:21:08;100173.06;;;11.86;92.13
50087;BME280;35967;50.718;7.050;2022-11-15T01:31:31;100159.34;;;11.86;92.52
50087;BME280;35967;50.718;7.050;2022-11-15T01:41:54;100153.53;;;11.79;92.44
50087;BME280;35967;50.718;7.050;2022-11-15T01:52:19;100134.44;;;11.84;92.44
50087;BME280;35967;50.718;7.050;2022-11-15T02:02:43;100135.16;;;11.88;93.10
50087;BME280;35967;50.718;7.050;2022-11-15T02:13:05;100134.03;;;11.95;92.72
50087;BME280;35967;50.718;7.050;2022-11-15T02:34:35;100099.50;;;11.99;92.16
50087;BME280;35967;50.718;7.050;2022-11-15T02:45:07;100097.16;;;12.17;91.89
50087;BME280;35967;50.718;7.050;2022-11-15T02:55:34;100097.47;;;12.09;91.77
50087;BME280;35967;50.718;7.050;2022-11-15T03:06:00;100087.00;;;12.12;91.63
50087;BME280;35967;50.718;7.050;2022-11-15T03:16:29;100088.75;;;12.12;91.35
50087;BME280;35967;50.718;7.050;2022-11-15T03:26:53;100081.66;;;12.17;90.77
50087;BME280;35967;50.718;7.050;2022-11-15T03:37:21;100072.78;;;12.24;91.07
50087;BME280;35967;50.718;7.050;2022-11-15T03:47:47;100074.31;;;12.30;91.06
50087;BME280;35967;50.718;7.050;2022-11-15T03:58:11;100070.75;;;12.33;90.73
50087;BME280;35967;50.718;7.050;2022-11-15T04:08:33;100054.44;;;12.32;91.20
50087;BME280;35967;50.718;7.050;2022-11-15T04:18:56;100056.97;;;12.34;91.24
50087;BME280;35967;50.718;7.050;2022-11-15T04:29:32;100058.00;;;12.29;91.20
50087;BME280;35967;50.718;7.050;2022-11-15T04:39:58;100050.47;;;12.23;91.78
50087;BME280;35967;50.718;7.050;2022-11-15T04:50:21;100066.50;;;12.31;92.27
50087;BME280;35967;50.718;7.050;2022-11-15T05:00:44;100060.00;;;12.43;92.08
50087;BME280;35967;50.718;7.050;2022-11-15T05:11:06;100050.78;;;12.38;92.02
50087;BME280;35967;50.718;7.050;2022-11-15T05:21:29;100058.63;;;12.35;91.73
50087;BME280;35967;50.718;7.050;2022-11-15T05:31:50;100055.69;;;12.44;89.81
50087;BME280;35967;50.718;7.050;2022-11-15T05:42:15;100064.88;;;12.51;88.05
50087;BME280;35967;50.718;7.050;2022-11-15T05:52:37;100065.78;;;12.28;88.06
50087;BME280;35967;50.718;7.050;2022-11-15T06:03:00;100067.56;;;12.26;86.47
50087;BME280;35967;50.718;7.050;2022-11-15T06:13:22;100085.59;;;12.27;85.02
50087;BME280;35967;50.718;7.050;2022-11-15T06:23:45;100102.22;;;12.20;85.14
50087;BME280;35967;50.718;7.050;2022-11-15T06:34:06;100113.84;;;12.08;86.75
50087;BME280;35967;50.718;7.050;2022-11-15T06:44:29;100114.56;;;11.87;87.78
50087;BME280;35967;50.718;7.050;2022-11-15T06:54:51;100120.25;;;11.73;88.48
50087;BME280;35967;50.718;7.050;2022-11-15T07:05:15;100124.94;;;11.85;87.73
50087;BME280;35967;50.718;7.050;2022-11-15T07:15:37;100122.81;;;11.73;87.64
50087;BME280;35967;50.718;7.050;2022-11-15T07:26:00;100119.38;;;11.72;87.50
50087;BME280;35967;50.718;7.050;2022-11-15T07:36:21;100138.13;;;11.77;86.75
50087;BME280;35967;50.718;7.050;2022-11-15T07:46:44;100148.53;;;11.74;86.02
50087;BME280;35967;50.718;7.050;2022-11-15T07:57:06;100140.91;;;11.71;85.01
50087;BME280;35967;50.718;7.050;2022-11-15T08:07:31;100130.56;;;11.96;83.45
50087;BME280;35967;50.718;7.050;2022-11-15T08:17:54;100125.59;;;11.90;82.85
50087;BME280;35967;50.718;7.050;2022-11-15T08:28:17;100123.41;;;12.05;82.39
50087;BME280;35967;50.718;7.050;2022-11-15T08:38:39;100116.28;;;12.11;80.90
50087;BME280;35967;50.718;7.050;2022-11-15T08:49:02;100107.97;;;12.27;76.59
50087;BME280;35967;50.718;7.050;2022-11-15T08:59:24;100090.75;;;12.50;74.02
50087;BME280;35967;50.718;7.050;2022-11-15T09:09:48;100098.97;;;12.59;71.79
50087;BME280;35967;50.718;7.050;2022-11-15T09:20:11;100088.50;;;12.85;69.84
50087;BME280;35967;50.718;7.050;2022-11-15T09:30:34;100086.00;;;13.04;68.62
50087;BME280;35967;50.718;7.050;2022-11-15T09:41:08;100076.75;;;13.19;65.88
50087;BME280;35967;50.718;7.050;2022-11-15T09:51:39;100060.09;;;13.26;64.90
50087;BME280;35967;50.718;7.050;2022-11-15T10:01:54;100037.66;;;13.26;62.17
50087;BME280;35967;50.718;7.050;2022-11-15T10:12:00;100020.75;;;13.40;59.24
50087;BME280;35967;50.718;7.050;2022-11-15T10:22:16;100025.72;;;13.64;57.69
50087;BME280;35967;50.718;7.050;2022-11-15T10:32:22;100001.47;;;13.85;56.51
50087;BME280;35967;50.718;7.050;2022-11-15T10:42:26;99990.09;;;14.07;56.04
50087;BME280;35967;50.718;7.050;2022-11-15T10:52:33;99972.19;;;14.22;55.03
50087;BME280;35967;50.718;7.050;2022-11-15T11:02:38;99969.28;;;14.28;56.06
50087;BME280;35967;50.718;7.050;2022-11-15T11:12:43;99956.44;;;14.07;58.97
50087;BME280;35967;50.718;7.050;2022-11-15T11:23:29;99939.03;;;14.11;58.61
50087;BME280;35967;50.718;7.050;2022-11-15T11:33:43;99917.28;;;14.67;57.51
50087;BME280;35967;50.718;7.050;2022-11-15T11:44:02;99902.09;;;14.77;57.14
50087;BME280;35967;50.718;7.050;2022-11-15T11:54:17;99894.00;;;14.83;56.57
50087;BME280;35967;50.718;7.050;2022-11-15T12:04:27;99895.94;;;14.80;56.84
50087;BME280;35967;50.718;7.050;2022-11-15T12:14:36;99880.94;;;14.69;58.08
50087;BME280;35967;50.718;7.050;2022-11-15T12:24:46;99872.25;;;14.70;58.41
50087;BME280;35967;50.718;7.050;2022-11-15T12:34:53;99848.28;;;14.65;59.64
50087;BME280;35967;50.718;7.050;2022-11-15T12:44:58;99836.59;;;14.58;62.48
50087;BME280;35967;50.718;7.050;2022-11-15T12:55:30;99809.09;;;14.55;64.10
50087;BME280;35967;50.718;7.050;2022-11-15T13:06:08;99807.75;;;14.64;65.41
50087;BME280;35967;50.718;7.050;2022-11-15T13:16:17;99778.44;;;14.63;65.65
50087;BME280;35967;50.718;7.050;2022-11-15T13:26:23;99765.56;;;14.46;66.96
50087;BME280;35967;50.718;7.050;2022-11-15T13:36:29;99745.69;;;14.62;66.88
50087;BME280;35967;50.718;7.050;2022-11-15T13:46:34;99719.13;;;14.59;66.93
50087;BME280;35967;50.718;7.050;2022-11-15T13:56:39;99710.97;;;14.66;66.85
50087;BME280;35967;50.718;7.050;2022-11-15T14:06:45;99701.28;;;14.70;66.87
50087;BME280;35967;50.718;7.050;2022-11-15T14:16:52;99690.59;;;14.76;67.26
50087;BME280;35967;50.718;7.050;2022-11-15T14:26:55;99665.69;;;14.74;67.27
50087;BME280;35967;50.718;7.050;2022-11-15T14:37:00;99654.56;;;14.72;67.63
50087;BME280;35967;50.718;7.050;2022-11-15T14:47:03;99644.31;;;14.70;67.73
50087;BME280;35967;50.718;7.050;2022-11-15T14:57:07;99629.69;;;14.69;68.04
50087;BME280;35967;50.718;7.050;2022-11-15T15:07:10;99610.19;;;14.62;68.44
50087;BME280;35967;50.718;7.050;2022-11-15T15:17:15;99594.91;;;14.57;68.66
50087;BME280;35967;50.718;7.050;2022-11-15T15:27:19;99570.75;;;14.57;69.38
50087;BME280;35967;50.718;7.050;2022-11-15T15:37:25;99556.34;;;14.36;69.71
50087;BME280;35967;50.718;7.050;2022-11-15T15:47:28;99548.81;;;14.48;69.37
50087;BME280;35967;50.718;7.050;2022-11-15T15:57:33;99541.91;;;14.32;69.85
50087;BME280;35967;50.718;7.050;2022-11-15T16:07:37;99529.69;;;14.34;70.17
50087;BME280;35967;50.718;7.050;2022-11-15T16:17:45;99519.53;;;14.31;70.29
50087;BME280;35967;50.718;7.050;2022-11-15T16:27:49;99515.09;;;14.33;70.52
50087;BME280;35967;50.718;7.050;2022-11-15T16:37:54;99513.69;;;14.28;70.93
50087;BME280;35967;50.718;7.050;2022-11-15T16:47:56;99502.56;;;14.26;71.57
50087;BME280;35967;50.718;7.050;2022-11-15T16:58:01;99511.91;;;14.28;71.64
50087;BME280;35967;50.718;7.050;2022-11-15T17:08:04;99500.66;;;14.29;72.23
50087;BME280;35967;50.718;7.050;2022-11-15T17:18:09;99510.09;;;14.30;72.65
50087;BME280;35967;50.718;7.050;2022-11-15T17:28:13;99500.22;;;14.37;73.15
50087;BME280;35967;50.718;7.050;2022-11-15T17:38:17;99502.47;;;14.27;73.96
50087;BME280;35967;50.718;7.050;2022-11-15T17:48:21;99494.50;;;14.16;77.20
50087;BME280;35967;50.718;7.050;2022-11-15T17:58:25;99486.50;;;14.04;78.93
50087;BME280;35967;50.718;7.050;2022-11-15T18:08:28;99475.47;;;14.01;79.96
50087;BME280;35967;50.718;7.050;2022-11-15T18:18:34;99471.16;;;14.01;80.14
50087;BME280;35967;50.718;7.050;2022-11-15T18:28:39;99467.50;;;13.90;81.84
50087;BME280;35967;50.718;7.050;2022-11-15T18:38:43;99460.28;;;13.79;82.63
50087;BME280;35967;50.718;7.050;2022-11-15T18:48:47;99446.22;;;13.68;83.33
50087;BME280;35967;50.718;7.050;2022-11-15T18:58:54;99443.38;;;13.73;83.50
50087;BME280;35967;50.718;7.050;2022-11-15T19:08:58;99430.47;;;13.73;83.54
50087;BME280;35967;50.718;7.050;2022-11-15T19:19:04;99425.59;;;13.67;83.53
50087;BME280;35967;50.718;7.050;2022-11-15T19:29:08;99418.78;;;13.66;83.08
50087;BME280;35967;50.718;7.050;2022-11-15T19:39:14;99411.34;;;13.60;83.08
50087;BME280;35967;50.718;7.050;2022-11-15T19:49:18;99405.59;;;13.54;82.92
50087;BME280;35967;50.718;7.050;2022-11-15T19:59:24;99387.00;;;13.64;83.10
50087;BME280;35967;50.718;7.050;2022-11-15T20:09:27;99378.06;;;13.69;82.76
50087;BME280;35967;50.718;7.050;2022-11-15T20:19:31;99371.47;;;13.64;83.03
50087;BME280;35967;50.718;7.050;2022-11-15T20:29:34;99374.22;;;13.61;83.18
50087;BME280;35967;50.718;7.050;2022-11-15T20:39:41;99368.03;;;13.63;83.00
50087;BME280;35967;50.718;7.050;2022-11-15T20:49:44;99360.72;;;13.55;84.03
50087;BME280;35967;50.718;7.050;2022-11-15T20:59:49;99352.22;;;13.53;84.39
50087;BME280;35967;50.718;7.050;2022-11-15T21:09:52;99341.22;;;13.34;85.80
50087;BME280;35967;50.718;7.050;2022-11-15T21:20:13;99337.06;;;13.47;87.37
50087;BME280;35967;50.718;7.050;2022-11-15T21:30:17;99320.88;;;13.44;86.71
50087;BME280;35967;50.718;7.050;2022-11-15T21:40:21;99312.69;;;13.35;87.55
50087;BME280;35967;50.718;7.050;2022-11-15T21:50:25;99309.84;;;13.24;88.09
50087;BME280;35967;50.718;7.050;2022-11-15T22:00:29;99296.22;;;13.22;89.06
50087;BME280;35967;50.718;7.050;2022-11-15T22:10:50;99285.19;;;13.18;89.87
50087;BME280;35967;50.718;7.050;2022-11-15T22:20:57;99275.44;;;13.07;90.96
50087;BME280;35967;50.718;7.050;2022-11-15T22:31:00;99262.19;;;12.98;92.31
50087;BME280;35967;50.718;7.050;2022-11-15T22:41:05;99253.53;;;12.99;92.33
50087;BME280;35967;50.718;7.050;2022-11-15T22:51:08;99253.94;;;13.07;92.21
50087;BME280;35967;50.718;7.050;2022-11-15T23:01:19;99246.84;;;12.94;93.25
50087;BME280;35967;50.718;7.050;2022-11-15T23:11:23;99229.97;;;12.89;93.83
50087;BME280;35967;50.718;7.050;2022-11-15T23:21:50;99212.66;;;12.75;94.81
50087;BME280;35967;50.718;7.050;2022-11-15T23:32:11;99216.31;;;12.87;95.12
50087;BME280;35967;50.718;7.050;2022-11-15T23:42:33;99207.22;;;12.80;95.23
50087;BME280;35967;50.718;7.050;2022-11-15T23:52:36;99189.22;;;12.78;95.72
